Beaver Creek, Colorado
Current Conditions -  °F | °C
As of 7:50 AM on Friday 19 Dec 2014 (Local Time) from KEGE Reporting Station
Light Snow Light Snow  
Wind Chill: 21°   Ceiling: 5000
Heat Index: 21°   Visibility: 8mi
Dew Point: 19°   Wind: 0mph
Humidity: 93%   Direction: NA
Pressure: 30.24"   Gusts: NA
Location:  39.6°N, 106.52°W
Report Text: KEGE 191350Z 00000KT 8SM -SN BR SCT040 BKN050 M06/M07 A3024
Loading
Personal Weather Stations






























Interactive Weather Map New forecast layout! Learn more

10-Day Weather Forecast

Advertisements
Track Severe Weather on mobile